createdAt,value
2022-08-27T00:01:49.214Z,4.53
2022-08-27T00:04:15.835Z,4.72
2022-08-27T00:06:42.259Z,4.34
2022-08-27T00:09:12.520Z,4.41
2022-08-27T00:11:38.940Z,4.73
2022-08-27T00:14:05.340Z,4.66
2022-08-27T00:16:31.938Z,4.91
2022-08-27T00:18:58.453Z,4.69
2022-08-27T00:21:24.865Z,4.98
2022-08-27T00:23:51.273Z,4.86
2022-08-27T00:26:17.694Z,4.47
2022-08-27T00:28:44.105Z,4.88
2022-08-27T00:31:12.360Z,4.72
2022-08-27T00:33:40.112Z,4.63
2022-08-27T00:36:07.544Z,4.43
2022-08-27T00:38:33.998Z,4.89
2022-08-27T00:41:00.417Z,4.75
2022-08-27T00:43:26.874Z,5.08
2022-08-27T00:45:53.386Z,5.15
2022-08-27T00:48:22.444Z,5.21
2022-08-27T00:50:48.908Z,5.03
2022-08-27T00:53:15.357Z,4.95
2022-08-27T00:55:41.753Z,5.18
2022-08-27T00:58:08.157Z,5.03
2022-08-27T01:00:34.605Z,5.18
2022-08-27T01:03:01.009Z,5.39
2022-08-27T01:05:27.423Z,5.68
2022-08-27T01:07:53.829Z,5.13
2022-08-27T01:10:20.275Z,5.39
2022-08-27T01:12:53.388Z,5.40
2022-08-27T01:15:20.391Z,5.13
2022-08-27T01:17:46.815Z,5.04
2022-08-27T01:20:13.307Z,5.50
2022-08-27T01:22:39.780Z,5.18
2022-08-27T01:25:06.189Z,5.15
2022-08-27T01:27:32.599Z,5.19
2022-08-27T01:29:59.068Z,4.92
2022-08-27T01:32:25.486Z,4.86
2022-08-27T01:34:52.049Z,4.87
2022-08-27T01:37:23.693Z,4.75
2022-08-27T01:39:50.700Z,4.91
2022-08-27T01:42:17.162Z,5.02
2022-08-27T01:44:47.200Z,4.72
2022-08-27T01:47:13.609Z,4.76
2022-08-27T01:49:40.067Z,4.77
2022-08-27T01:52:06.468Z,4.85
2022-08-27T01:54:33.270Z,4.62
2022-08-27T01:56:59.690Z,4.58
2022-08-27T01:59:26.149Z,5.13
2022-08-27T02:02:06.406Z,4.92
2022-08-27T02:04:32.834Z,4.87
2022-08-27T02:07:02.055Z,4.67
2022-08-27T02:09:30.934Z,4.55
2022-08-27T02:11:57.385Z,4.60
2022-08-27T02:14:23.908Z,4.71
2022-08-27T02:16:52.416Z,4.91
2022-08-27T02:19:19.336Z,4.81
2022-08-27T02:21:45.793Z,4.73
2022-08-27T02:24:12.229Z,4.82
2022-08-27T02:26:38.781Z,4.56
2022-08-27T02:29:05.252Z,4.88
2022-08-27T02:31:31.728Z,4.76
2022-08-27T02:33:58.314Z,4.86
2022-08-27T02:36:24.710Z,4.97
2022-08-27T02:38:51.161Z,4.82
2022-08-27T02:41:17.683Z,4.72
2022-08-27T02:43:44.087Z,4.79
2022-08-27T02:46:12.426Z,4.86
2022-08-27T02:48:38.917Z,4.74
2022-08-27T02:51:05.303Z,4.99
2022-08-27T02:53:31.679Z,4.98
2022-08-27T02:55:58.096Z,4.86
2022-08-27T02:58:24.508Z,4.32
2022-08-27T03:00:50.901Z,4.61
2022-08-27T03:03:17.301Z,4.83
2022-08-27T03:05:43.702Z,4.69
2022-08-27T03:08:10.228Z,4.70
2022-08-27T03:10:36.788Z,4.59
2022-08-27T03:13:03.239Z,4.35
2022-08-27T03:15:29.725Z,4.69
2022-08-27T03:17:57.480Z,4.72
2022-08-27T03:20:23.888Z,4.82
2022-08-27T03:22:50.282Z,4.97
2022-08-27T03:25:16.679Z,4.50
2022-08-27T03:27:43.430Z,4.92
2022-08-27T03:30:09.844Z,4.70
2022-08-27T03:32:36.268Z,4.38
2022-08-27T03:35:02.674Z,4.59
2022-08-27T03:37:29.097Z,4.64
2022-08-27T03:39:55.543Z,4.67
2022-08-27T03:42:22.038Z,4.63
2022-08-27T03:44:48.807Z,4.60
2022-08-27T03:47:15.202Z,4.58
2022-08-27T03:49:41.621Z,4.70
2022-08-27T03:52:08.407Z,4.70
2022-08-27T03:54:34.854Z,4.27
2022-08-27T03:57:01.271Z,4.59
2022-08-27T03:59:27.666Z,4.41
2022-08-27T04:01:54.107Z,4.28
2022-08-27T04:04:20.544Z,4.36
2022-08-27T04:06:46.992Z,4.77
2022-08-27T04:09:13.398Z,4.38
2022-08-27T04:11:39.801Z,4.18
2022-08-27T04:14:13.858Z,4.12
2022-08-27T04:16:52.624Z,4.17
2022-08-27T04:19:19.148Z,4.32
2022-08-27T04:21:45.557Z,4.14
2022-08-27T04:24:12.008Z,4.26
2022-08-27T04:26:38.407Z,3.99
2022-08-27T04:29:04.816Z,4.19
2022-08-27T04:31:31.261Z,4.08
2022-08-27T04:33:57.667Z,3.61
2022-08-27T04:36:24.064Z,4.13
2022-08-27T04:38:50.622Z,3.94
2022-08-27T04:41:17.030Z,3.91
2022-08-27T04:43:44.834Z,3.89
2022-08-27T04:46:11.295Z,3.98
2022-08-27T04:48:38.561Z,4.00
2022-08-27T04:51:05.229Z,4.23
2022-08-27T04:53:33.312Z,3.96
2022-08-27T04:55:59.845Z,4.22
2022-08-27T04:58:26.269Z,4.07
2022-08-27T05:00:52.734Z,4.30
2022-08-27T05:03:19.161Z,4.29
2022-08-27T05:05:45.561Z,4.12
2022-08-27T05:08:12.173Z,4.44
2022-08-27T05:10:41.736Z,4.59
2022-08-27T05:13:08.196Z,4.39
2022-08-27T05:15:34.822Z,4.87
2022-08-27T05:18:01.226Z,4.57
2022-08-27T05:20:27.720Z,4.81
2022-08-27T05:22:54.165Z,4.45
2022-08-27T05:25:20.718Z,4.40
2022-08-27T05:27:47.157Z,4.39
2022-08-27T05:30:14.904Z,4.62
2022-08-27T05:32:41.347Z,3.79
2022-08-27T05:35:11.910Z,3.84
2022-08-27T05:37:42.189Z,3.67
2022-08-27T05:40:08.898Z,3.52
2022-08-27T05:42:35.391Z,3.58
2022-08-27T05:45:01.812Z,3.54
2022-08-27T05:47:28.218Z,3.74
2022-08-27T05:49:54.607Z,3.58
2022-08-27T05:52:21.021Z,3.42
2022-08-27T05:54:47.429Z,3.64
2022-08-27T05:57:13.814Z,3.57
2022-08-27T05:59:40.203Z,3.58
2022-08-27T06:02:06.838Z,3.71
2022-08-27T06:04:33.445Z,3.52
2022-08-27T06:07:01.962Z,3.49
2022-08-27T06:09:28.368Z,3.58
2022-08-27T06:11:54.903Z,3.69
2022-08-27T06:14:21.297Z,3.46
2022-08-27T06:16:47.709Z,3.78
2022-08-27T06:19:14.089Z,3.74
2022-08-27T06:21:40.492Z,4.00
2022-08-27T06:24:06.901Z,3.69
2022-08-27T06:26:33.332Z,3.57
2022-08-27T06:28:59.770Z,3.65
2022-08-27T06:31:26.240Z,3.98
2022-08-27T06:33:52.693Z,3.87
2022-08-27T06:36:21.956Z,3.83
2022-08-27T06:38:48.649Z,3.89
2022-08-27T06:41:16.445Z,4.00
2022-08-27T06:43:52.142Z,3.99
2022-08-27T06:46:18.591Z,4.00
2022-08-27T06:48:45.121Z,4.25
2022-08-27T06:51:12.628Z,4.35
2022-08-27T06:53:39.039Z,4.36
2022-08-27T06:56:06.597Z,4.35
2022-08-27T06:58:32.987Z,4.15
2022-08-27T07:00:59.516Z,4.33
2022-08-27T07:03:25.966Z,4.32
2022-08-27T07:05:52.374Z,4.38
2022-08-27T07:08:18.787Z,4.15
2022-08-27T07:10:47.961Z,4.25
2022-08-27T07:13:14.428Z,4.74
2022-08-27T07:15:40.860Z,4.35
2022-08-27T07:18:07.652Z,4.44
2022-08-27T07:20:36.191Z,4.15
2022-08-27T07:23:02.588Z,4.12
2022-08-27T07:25:29.192Z,4.43
2022-08-27T07:27:55.570Z,4.61
2022-08-27T07:30:21.996Z,4.73
2022-08-27T07:32:48.398Z,4.34
2022-08-27T07:35:14.819Z,4.50
2022-08-27T07:37:41.218Z,4.67
2022-08-27T07:40:07.657Z,5.72
2022-08-27T07:42:34.509Z,5.33
2022-08-27T07:45:00.933Z,4.86
2022-08-27T07:47:27.656Z,5.31
2022-08-27T07:49:54.174Z,5.13
2022-08-27T07:52:23.586Z,5.25
2022-08-27T07:54:52.765Z,5.32
2022-08-27T07:57:19.165Z,5.52
2022-08-27T07:59:45.590Z,5.22
2022-08-27T08:02:12.024Z,5.07
2022-08-27T08:04:38.490Z,5.00
2022-08-27T08:07:04.907Z,5.10
2022-08-27T08:09:31.289Z,5.06
2022-08-27T08:11:57.747Z,4.94
2022-08-27T08:14:27.258Z,5.49
2022-08-27T08:16:53.737Z,5.59
2022-08-27T08:19:20.189Z,5.37
2022-08-27T08:21:46.592Z,5.37
2022-08-27T08:24:13.048Z,5.30
2022-08-27T08:26:39.500Z,5.14
2022-08-27T08:29:05.900Z,5.39
2022-08-27T08:31:32.293Z,5.31
2022-08-27T08:33:58.700Z,5.57
2022-08-27T08:36:26.195Z,5.67
2022-08-27T08:38:52.598Z,5.46
2022-08-27T08:41:18.999Z,5.70
2022-08-27T08:43:45.380Z,5.95
2022-08-27T08:46:11.782Z,5.85
2022-08-27T08:48:38.200Z,5.67
2022-08-27T08:51:07.635Z,5.81
2022-08-27T08:53:34.068Z,5.35
2022-08-27T08:56:03.796Z,5.41
2022-08-27T08:58:30.683Z,5.44
2022-08-27T09:00:57.198Z,5.28
2022-08-27T09:03:23.672Z,6.02
2022-08-27T09:05:50.128Z,5.74
2022-08-27T09:08:32.885Z,5.63
2022-08-27T09:11:00.839Z,5.69
2022-08-27T09:13:27.232Z,5.66
2022-08-27T09:15:53.675Z,5.75
2022-08-27T09:18:20.485Z,5.64
2022-08-27T09:20:46.897Z,5.18
2022-08-27T09:23:14.845Z,5.60
2022-08-27T09:25:41.220Z,5.69
2022-08-27T09:28:07.652Z,5.46
2022-08-27T09:30:34.214Z,5.33
2022-08-27T09:33:00.718Z,5.16
2022-08-27T09:35:27.128Z,5.29
2022-08-27T09:37:53.524Z,5.49
2022-08-27T09:40:22.719Z,5.01
2022-08-27T09:42:49.945Z,6.08
2022-08-27T09:45:17.477Z,5.74
2022-08-27T09:47:43.871Z,6.35
2022-08-27T09:50:10.342Z,6.21
2022-08-27T09:52:38.179Z,5.85
2022-08-27T09:55:04.588Z,6.14
2022-08-27T09:57:32.114Z,5.69
2022-08-27T09:59:58.580Z,5.42
2022-08-27T10:02:27.033Z,5.71
2022-08-27T10:04:53.420Z,5.94
2022-08-27T10:07:19.806Z,5.93
2022-08-27T10:09:46.222Z,6.32
2022-08-27T10:12:15.830Z,5.88
2022-08-27T10:14:42.233Z,5.98
2022-08-27T10:17:08.644Z,5.76
2022-08-27T10:19:35.029Z,5.89
2022-08-27T10:22:01.466Z,5.72
2022-08-27T10:24:27.847Z,5.56
2022-08-27T10:26:54.295Z,5.69
2022-08-27T10:29:20.675Z,5.58
2022-08-27T10:31:47.115Z,5.70
2022-08-27T10:34:13.569Z,5.81
2022-08-27T10:36:40.175Z,5.62
2022-08-27T10:39:07.025Z,5.87
2022-08-27T10:41:33.419Z,5.76
2022-08-27T10:43:59.825Z,5.85
2022-08-27T10:46:27.158Z,5.74
2022-08-27T10:48:53.710Z,5.82
2022-08-27T10:51:20.108Z,5.98
2022-08-27T10:53:46.507Z,5.93
2022-08-27T10:56:13.923Z,5.24
2022-08-27T10:58:40.448Z,5.13
2022-08-27T11:01:06.947Z,4.77
2022-08-27T11:03:33.594Z,4.57
2022-08-27T11:06:00.073Z,4.85
2022-08-27T11:08:26.477Z,4.36
2022-08-27T11:10:53.141Z,4.17
2022-08-27T11:13:19.649Z,4.17
2022-08-27T11:15:46.147Z,4.12
2022-08-27T11:18:12.671Z,4.42
2022-08-27T11:20:39.238Z,3.90
2022-08-27T11:23:05.656Z,3.70
2022-08-27T11:25:32.088Z,3.95
2022-08-27T11:27:58.570Z,4.15
2022-08-27T11:30:25.022Z,4.33
2022-08-27T11:32:51.437Z,4.17
2022-08-27T11:35:17.837Z,3.90
2022-08-27T11:37:44.246Z,3.81
2022-08-27T11:40:12.532Z,3.69
2022-08-27T11:42:39.004Z,3.83
2022-08-27T11:45:05.408Z,3.92
2022-08-27T11:47:32.308Z,4.34
2022-08-27T11:49:58.734Z,3.43
2022-08-27T11:52:25.188Z,3.61
2022-08-27T11:54:51.582Z,3.49
2022-08-27T11:57:17.978Z,2.95
2022-08-27T11:59:44.388Z,3.15
2022-08-27T12:02:10.776Z,3.43
2022-08-27T12:04:38.430Z,3.29
2022-08-27T12:07:04.889Z,3.32
2022-08-27T12:09:31.374Z,3.42
2022-08-27T12:11:57.773Z,3.08
2022-08-27T12:14:25.177Z,3.34
2022-08-27T12:16:51.745Z,3.19
2022-08-27T12:19:18.151Z,3.08
2022-08-27T12:21:44.539Z,2.97
2022-08-27T12:24:10.961Z,2.81
2022-08-27T12:26:37.387Z,3.24
2022-08-27T12:29:03.777Z,2.92
2022-08-27T12:31:30.304Z,2.79
2022-08-27T12:33:56.702Z,2.87
2022-08-27T12:36:27.979Z,3.02
2022-08-27T12:38:54.942Z,3.04
2022-08-27T12:41:21.373Z,2.70
2022-08-27T12:43:47.757Z,2.69
2022-08-27T12:46:14.216Z,2.66
2022-08-27T12:48:40.630Z,2.91
2022-08-27T12:51:07.038Z,2.78
2022-08-27T12:53:33.442Z,2.83
2022-08-27T12:55:59.908Z,2.92
2022-08-27T12:58:26.333Z,2.59
2022-08-27T13:00:52.896Z,2.90
2022-08-27T13:03:19.359Z,2.86
2022-08-27T13:05:45.748Z,2.64
2022-08-27T13:08:12.312Z,2.74
2022-08-27T13:10:38.882Z,2.59
2022-08-27T13:13:05.300Z,2.73
2022-08-27T13:15:31.749Z,2.82
2022-08-27T13:17:58.139Z,2.75
2022-08-27T13:20:28.879Z,2.71
2022-08-27T13:22:55.308Z,2.61
2022-08-27T13:25:21.717Z,2.83
2022-08-27T13:27:48.100Z,2.75
2022-08-27T13:30:18.115Z,2.49
2022-08-27T13:33:00.851Z,2.70
2022-08-27T13:35:27.250Z,2.73
2022-08-27T13:37:53.646Z,2.73
2022-08-27T13:40:20.135Z,2.62
2022-08-27T13:42:47.534Z,2.35
2022-08-27T13:45:13.987Z,2.35
2022-08-27T13:47:40.413Z,2.35
2022-08-27T13:50:06.812Z,2.62
2022-08-27T13:52:34.302Z,2.55
2022-08-27T13:55:00.704Z,2.63
2022-08-27T13:57:27.104Z,2.57
2022-08-27T13:59:55.489Z,2.77
2022-08-27T14:02:22.363Z,2.73
2022-08-27T14:04:49.612Z,2.62
2022-08-27T14:07:15.988Z,2.95
2022-08-27T14:09:42.385Z,2.76
2022-08-27T14:12:08.775Z,2.53
2022-08-27T14:14:36.956Z,2.69
2022-08-27T14:17:03.343Z,2.68
2022-08-27T14:19:33.321Z,2.54
2022-08-27T14:22:02.782Z,2.47
2022-08-27T14:24:29.188Z,2.50
2022-08-27T14:26:55.711Z,2.60
2022-08-27T14:29:23.216Z,2.70
2022-08-27T14:31:49.657Z,2.36
2022-08-27T14:34:16.128Z,2.40
2022-08-27T14:36:42.526Z,2.59
2022-08-27T14:39:08.978Z,2.63
2022-08-27T14:41:35.384Z,2.77
2022-08-27T14:44:01.801Z,2.67
2022-08-27T14:46:28.308Z,2.73
2022-08-27T14:48:54.715Z,2.65
2022-08-27T14:51:21.109Z,2.68
2022-08-27T14:53:47.502Z,2.70
2022-08-27T14:56:13.924Z,2.73
2022-08-27T14:58:40.326Z,2.74
2022-08-27T15:01:06.746Z,2.84
2022-08-27T15:03:33.164Z,2.72
2022-08-27T15:05:59.540Z,2.89
2022-08-27T15:08:29.419Z,2.92
2022-08-27T15:10:58.516Z,2.80
2022-08-27T15:13:24.938Z,2.87
2022-08-27T15:15:52.199Z,2.97
2022-08-27T15:18:18.982Z,3.08
2022-08-27T15:20:45.367Z,2.89
2022-08-27T15:23:11.741Z,2.95
2022-08-27T15:25:38.144Z,3.11
2022-08-27T15:28:04.566Z,2.94
2022-08-27T15:30:32.024Z,3.23
2022-08-27T15:32:58.413Z,3.10
2022-08-27T15:35:24.824Z,3.17
2022-08-27T15:37:53.083Z,3.11
2022-08-27T15:40:19.528Z,3.03
2022-08-27T15:42:45.989Z,3.03
2022-08-27T15:45:12.416Z,3.10
2022-08-27T15:47:38.856Z,3.28
2022-08-27T15:50:05.310Z,3.08
2022-08-27T15:52:41.091Z,3.16
2022-08-27T15:55:07.909Z,3.12
2022-08-27T15:57:34.345Z,3.14
2022-08-27T16:00:00.750Z,3.20
2022-08-27T16:02:27.194Z,3.14
2022-08-27T16:04:53.627Z,3.23
2022-08-27T16:07:21.187Z,3.17
2022-08-27T16:09:47.805Z,3.16
2022-08-27T16:12:27.005Z,3.90
2022-08-27T16:14:53.958Z,3.51
2022-08-27T16:17:20.369Z,3.42
2022-08-27T16:19:46.808Z,3.39
2022-08-27T16:22:13.192Z,3.45
2022-08-27T16:24:39.583Z,3.28
2022-08-27T16:27:05.951Z,3.56
2022-08-27T16:29:32.361Z,3.53
2022-08-27T16:32:01.301Z,3.52
2022-08-27T16:34:27.990Z,3.79
2022-08-27T16:36:54.389Z,3.99
2022-08-27T16:39:20.777Z,3.82
2022-08-27T16:41:47.213Z,4.13
2022-08-27T16:44:13.608Z,3.96
2022-08-27T16:46:42.961Z,3.95
2022-08-27T16:49:09.357Z,4.02
2022-08-27T16:51:35.811Z,4.17
2022-08-27T16:54:02.230Z,4.03
2022-08-27T16:56:36.390Z,4.23
2022-08-27T16:59:04.245Z,4.15
2022-08-27T17:01:30.704Z,3.97
2022-08-27T17:04:21.360Z,4.58
2022-08-27T17:06:43.564Z,4.54
2022-08-27T17:09:09.986Z,4.43
2022-08-27T17:11:36.404Z,4.78
2022-08-27T17:14:02.804Z,5.00
2022-08-27T17:16:29.224Z,4.81
2022-08-27T17:18:55.633Z,4.94
2022-08-27T17:21:23.794Z,4.81
2022-08-27T17:23:53.013Z,4.45
2022-08-27T17:26:19.443Z,4.38
2022-08-27T17:28:45.840Z,4.29
2022-08-27T17:31:12.324Z,4.52
2022-08-27T17:33:38.773Z,4.60
2022-08-27T17:36:05.185Z,4.66
2022-08-27T17:38:32.636Z,4.63
2022-08-27T17:40:59.036Z,4.53
2022-08-27T17:43:25.437Z,4.53
2022-08-27T17:45:51.850Z,4.72
2022-08-27T17:48:19.089Z,4.76
2022-08-27T17:50:46.051Z,4.78
2022-08-27T17:53:12.497Z,4.86
2022-08-27T17:55:38.893Z,5.01
2022-08-27T17:58:05.405Z,4.57
2022-08-27T18:00:31.833Z,4.80
2022-08-27T18:02:58.229Z,4.72
2022-08-27T18:05:24.685Z,4.60
2022-08-27T18:07:51.121Z,5.02
2022-08-27T18:10:17.497Z,4.93
2022-08-27T18:12:43.884Z,4.87
2022-08-27T18:15:10.292Z,4.87
2022-08-27T18:17:42.458Z,4.77
2022-08-27T18:20:09.771Z,4.91
2022-08-27T18:22:38.862Z,5.17
2022-08-27T18:25:07.428Z,4.67
2022-08-27T18:27:33.828Z,4.96
2022-08-27T18:30:00.250Z,6.24
2022-08-27T18:32:26.688Z,8.10
2022-08-27T18:34:53.110Z,7.22
2022-08-27T18:37:19.528Z,7.69
2022-08-27T18:39:45.951Z,8.69
2022-08-27T18:42:12.352Z,10.86
2022-08-27T18:44:38.759Z,6.85
2022-08-27T18:47:05.179Z,6.53
2022-08-27T18:49:31.576Z,7.00
2022-08-27T18:51:58.058Z,7.88
2022-08-27T18:54:24.440Z,8.22
2022-08-27T18:56:50.869Z,7.62
2022-08-27T18:59:17.310Z,7.23
2022-08-27T19:01:44.763Z,7.17
2022-08-27T19:04:11.248Z,6.79
2022-08-27T19:06:37.667Z,6.93
2022-08-27T19:09:04.219Z,6.27
2022-08-27T19:11:30.606Z,7.36
2022-08-27T19:13:58.370Z,7.88
2022-08-27T19:16:24.819Z,6.53
2022-08-27T19:18:51.293Z,6.48
2022-08-27T19:21:17.716Z,7.51
2022-08-27T19:23:44.103Z,6.00
2022-08-27T19:26:10.509Z,7.82
2022-08-27T19:28:36.892Z,7.20
2022-08-27T19:31:03.349Z,7.31
2022-08-27T19:33:29.736Z,6.38
2022-08-27T19:35:56.145Z,6.15
2022-08-27T19:38:22.542Z,6.56
2022-08-27T19:40:49.001Z,6.55
2022-08-27T19:43:17.526Z,6.86
2022-08-27T19:45:43.959Z,7.14
2022-08-27T19:48:10.508Z,7.23
2022-08-27T19:50:37.031Z,7.11
2022-08-27T19:53:03.445Z,7.32
2022-08-27T19:55:29.867Z,7.17
2022-08-27T19:57:56.293Z,7.50
2022-08-27T20:00:22.684Z,7.31
2022-08-27T20:02:50.955Z,7.53
2022-08-27T20:05:18.954Z,7.33
2022-08-27T20:07:45.796Z,7.54
2022-08-27T20:10:12.220Z,7.37
2022-08-27T20:12:38.625Z,7.06
2022-08-27T20:15:05.031Z,7.14
2022-08-27T20:17:31.436Z,6.95
2022-08-27T20:19:57.819Z,7.27
2022-08-27T20:22:24.231Z,7.05
2022-08-27T20:24:50.622Z,7.18
2022-08-27T20:27:17.013Z,7.32
2022-08-27T20:29:44.566Z,7.27
2022-08-27T20:32:11.035Z,7.06
2022-08-27T20:34:37.429Z,7.98
2022-08-27T20:37:03.821Z,6.78
2022-08-27T20:39:30.230Z,6.70
2022-08-27T20:41:56.627Z,6.42
2022-08-27T20:44:23.109Z,6.79
2022-08-27T20:46:52.151Z,6.36
2022-08-27T20:49:18.643Z,7.04
2022-08-27T20:51:51.569Z,6.88
2022-08-27T20:54:29.835Z,6.69
2022-08-27T20:56:56.262Z,6.71
2022-08-27T20:59:22.649Z,5.96
2022-08-27T21:01:49.096Z,6.23
2022-08-27T21:04:15.556Z,6.48
2022-08-27T21:06:41.955Z,6.46
2022-08-27T21:09:08.357Z,6.40
2022-08-27T21:11:34.743Z,6.45
2022-08-27T21:14:01.142Z,6.44
2022-08-27T21:16:27.586Z,6.64
2022-08-27T21:18:54.051Z,6.56
2022-08-27T21:21:20.552Z,6.95
2022-08-27T21:23:46.940Z,7.58
2022-08-27T21:26:13.330Z,6.81
2022-08-27T21:28:39.719Z,6.34
2022-08-27T21:31:06.186Z,6.02
2022-08-27T21:33:32.624Z,6.40
2022-08-27T21:36:02.454Z,6.47
2022-08-27T21:38:28.838Z,6.27
2022-08-27T21:40:57.854Z,6.42
2022-08-27T21:43:24.372Z,6.39
2022-08-27T21:45:50.781Z,6.88
2022-08-27T21:48:17.205Z,6.66
2022-08-27T21:50:43.625Z,6.56
2022-08-27T21:53:10.039Z,6.71
2022-08-27T21:55:36.556Z,6.57
2022-08-27T21:58:02.950Z,6.62
2022-08-27T22:00:29.430Z,6.20
2022-08-27T22:02:55.965Z,6.35
2022-08-27T22:05:22.388Z,6.26
2022-08-27T22:07:48.837Z,6.44
2022-08-27T22:10:17.559Z,7.00
2022-08-27T22:12:44.099Z,6.65
2022-08-27T22:15:10.597Z,7.28
2022-08-27T22:17:37.004Z,6.62
2022-08-27T22:20:03.463Z,6.62
2022-08-27T22:22:31.337Z,6.46
2022-08-27T22:24:57.740Z,6.65
2022-08-27T22:27:24.131Z,6.86
2022-08-27T22:29:50.535Z,6.94
2022-08-27T22:32:16.956Z,6.79
2022-08-27T22:34:43.407Z,10.98
2022-08-27T22:37:09.799Z,10.37
2022-08-27T22:39:36.219Z,22.60
2022-08-27T22:42:03.009Z,16.06
2022-08-27T22:44:33.576Z,9.84
2022-08-27T22:46:59.977Z,8.73
2022-08-27T22:49:26.488Z,9.69
2022-08-27T22:51:52.907Z,8.52
2022-08-27T22:54:19.325Z,7.71
2022-08-27T22:56:45.757Z,7.49
2022-08-27T22:59:12.139Z,7.54
2022-08-27T23:01:38.563Z,7.51
2022-08-27T23:04:05.087Z,7.57
2022-08-27T23:06:31.567Z,7.77
2022-08-27T23:08:57.977Z,7.53
2022-08-27T23:11:24.392Z,7.60
2022-08-27T23:13:50.826Z,7.67
2022-08-27T23:16:17.258Z,7.67
2022-08-27T23:18:43.656Z,7.46
2022-08-27T23:21:10.042Z,7.51
2022-08-27T23:23:36.488Z,7.67
2022-08-27T23:26:02.901Z,7.61
2022-08-27T23:28:29.280Z,7.77
2022-08-27T23:30:57.439Z,7.66
2022-08-27T23:33:23.854Z,7.68
2022-08-27T23:35:50.312Z,7.73
2022-08-27T23:38:16.705Z,7.45
2022-08-27T23:40:43.129Z,7.67
2022-08-27T23:43:09.530Z,7.44
2022-08-27T23:45:40.480Z,7.58
2022-08-27T23:48:07.302Z,7.64
2022-08-27T23:50:34.350Z,7.36
2022-08-27T23:53:00.950Z,7.37
2022-08-27T23:55:27.350Z,7.14
2022-08-27T23:57:53.756Z,7.10
